sensor_id;sensor_type;location;lat;lon;timestamp;pressure;altitude;pressure_sealevel;temperature;humidity
49342;BME280;35210;41.606;-87.602;2023-04-01T00:02:03;97387.06;;;19.63;100.00
49342;BME280;35210;41.606;-87.602;2023-04-01T00:04:31;97396.59;;;19.59;100.00
49342;BME280;35210;41.606;-87.602;2023-04-01T00:07:00;97393.84;;;19.65;100.00
49342;BME280;35210;41.606;-87.602;2023-04-01T00:09:28;97384.09;;;19.71;100.00
49342;BME280;35210;41.606;-87.602;2023-04-01T00:11:56;97389.34;;;19.78;100.00
49342;BME280;35210;41.606;-87.602;2023-04-01T00:14:26;97374.47;;;19.82;100.00
49342;BME280;35210;41.606;-87.602;2023-04-01T00:16:55;97364.22;;;19.79;100.00
49342;BME280;35210;41.606;-87.602;2023-04-01T00:19:23;97384.59;;;19.80;100.00
49342;BME280;35210;41.606;-87.602;2023-04-01T00:21:52;97373.97;;;19.73;100.00
49342;BME280;35210;41.606;-87.602;2023-04-01T00:24:20;97363.31;;;19.85;100.00
49342;BME280;35210;41.606;-87.602;2023-04-01T00:26:48;97339.53;;;19.77;100.00
49342;BME280;35210;41.606;-87.602;2023-04-01T00:29:16;97316.00;;;19.79;100.00
49342;BME280;35210;41.606;-87.602;2023-04-01T00:31:46;97280.84;;;19.75;100.00
49342;BME280;35210;41.606;-87.602;2023-04-01T00:34:15;97256.25;;;19.66;100.00
49342;BME280;35210;41.606;-87.602;2023-04-01T00:36:43;97224.31;;;19.53;100.00
49342;BME280;35210;41.606;-87.602;2023-04-01T00:39:11;97295.84;;;19.46;100.00
49342;BME280;35210;41.606;-87.602;2023-04-01T00:41:39;97341.50;;;19.51;100.00
49342;BME280;35210;41.606;-87.602;2023-04-01T00:44:17;97398.88;;;19.37;100.00
49342;BME280;35210;41.606;-87.602;2023-04-01T00:46:47;97383.19;;;19.41;100.00
49342;BME280;35210;41.606;-87.602;2023-04-01T00:49:17;97428.53;;;19.35;100.00
49342;BME280;35210;41.606;-87.602;2023-04-01T00:51:48;97408.91;;;19.42;100.00
49342;BME280;35210;41.606;-87.602;2023-04-01T00:54:19;97372.28;;;19.24;100.00
49342;BME280;35210;41.606;-87.602;2023-04-01T00:56:49;97400.00;;;19.11;100.00
49342;BME280;35210;41.606;-87.602;2023-04-01T00:59:25;97403.31;;;18.88;100.00
49342;BME280;35210;41.606;-87.602;2023-04-01T01:01:55;97409.72;;;18.62;100.00
49342;BME280;35210;41.606;-87.602;2023-04-01T01:04:25;97375.50;;;18.71;100.00
49342;BME280;35210;41.606;-87.602;2023-04-01T01:07:00;97273.03;;;18.09;100.00
49342;BME280;35210;41.606;-87.602;2023-04-01T01:09:41;97242.41;;;17.87;100.00
49342;BME280;35210;41.606;-87.602;2023-04-01T01:12:14;97145.78;;;17.78;100.00
49342;BME280;35210;41.606;-87.602;2023-04-01T01:14:52;97178.69;;;17.72;100.00
49342;BME280;35210;41.606;-87.602;2023-04-01T01:17:33;97181.53;;;17.77;100.00
49342;BME280;35210;41.606;-87.602;2023-04-01T01:23:39;97165.13;;;17.73;100.00
49342;BME280;35210;41.606;-87.602;2023-04-01T01:26:29;97177.47;;;17.93;100.00
49342;BME280;35210;41.606;-87.602;2023-04-01T01:29:11;97188.19;;;18.11;100.00
49342;BME280;35210;41.606;-87.602;2023-04-01T01:31:49;97189.31;;;18.22;100.00
49342;BME280;35210;41.606;-87.602;2023-04-01T01:34:23;97199.72;;;18.30;100.00
49342;BME280;35210;41.606;-87.602;2023-04-01T01:37:03;97264.09;;;18.47;100.00
49342;BME280;35210;41.606;-87.602;2023-04-01T01:39:35;97522.44;;;18.15;99.01
49342;BME280;35210;41.606;-87.602;2023-04-01T01:42:06;97454.31;;;17.34;93.96
49342;BME280;35210;41.606;-87.602;2023-04-01T01:44:38;97424.66;;;16.91;93.47
49342;BME280;35210;41.606;-87.602;2023-04-01T01:47:07;97463.97;;;16.36;92.94
49342;BME280;35210;41.606;-87.602;2023-04-01T01:49:37;97495.00;;;15.90;92.54
49342;BME280;35210;41.606;-87.602;2023-04-01T01:52:08;97484.22;;;15.63;92.57
49342;BME280;35210;41.606;-87.602;2023-04-01T01:54:47;97510.38;;;15.53;90.84
49342;BME280;35210;41.606;-87.602;2023-04-01T01:57:16;97480.72;;;15.22;92.90
49342;BME280;35210;41.606;-87.602;2023-04-01T01:59:46;97487.44;;;15.18;93.46
49342;BME280;35210;41.606;-87.602;2023-04-01T02:02:17;97472.50;;;15.17;91.67
49342;BME280;35210;41.606;-87.602;2023-04-01T02:04:46;97492.03;;;15.02;92.47
49342;BME280;35210;41.606;-87.602;2023-04-01T02:07:19;97510.88;;;15.07;92.35
49342;BME280;35210;41.606;-87.602;2023-04-01T02:09:48;97528.13;;;15.18;92.50
49342;BME280;35210;41.606;-87.602;2023-04-01T02:12:19;97553.91;;;15.18;91.51
49342;BME280;35210;41.606;-87.602;2023-04-01T02:14:53;97562.13;;;15.23;91.21
49342;BME280;35210;41.606;-87.602;2023-04-01T02:17:25;97466.63;;;15.28;90.39
49342;BME280;35210;41.606;-87.602;2023-04-01T02:19:56;97451.31;;;15.30;90.58
49342;BME280;35210;41.606;-87.602;2023-04-01T02:22:29;97439.09;;;15.42;90.12
49342;BME280;35210;41.606;-87.602;2023-04-01T02:25:04;97441.97;;;15.40;88.80
49342;BME280;35210;41.606;-87.602;2023-04-01T02:27:34;97424.38;;;15.46;89.12
49342;BME280;35210;41.606;-87.602;2023-04-01T02:30:03;97431.97;;;15.49;88.29
49342;BME280;35210;41.606;-87.602;2023-04-01T02:32:33;97427.28;;;15.51;88.78
49342;BME280;35210;41.606;-87.602;2023-04-01T02:35:05;97411.19;;;15.59;89.11
49342;BME280;35210;41.606;-87.602;2023-04-01T02:37:35;97407.28;;;15.68;89.29
49342;BME280;35210;41.606;-87.602;2023-04-01T02:40:05;97402.81;;;15.75;89.64
49342;BME280;35210;41.606;-87.602;2023-04-01T02:42:35;97386.44;;;15.78;89.54
49342;BME280;35210;41.606;-87.602;2023-04-01T02:45:05;97394.25;;;15.87;89.84
49342;BME280;35210;41.606;-87.602;2023-04-01T02:47:35;97381.78;;;15.94;88.98
49342;BME280;35210;41.606;-87.602;2023-04-01T02:50:04;97391.00;;;15.98;87.10
49342;BME280;35210;41.606;-87.602;2023-04-01T02:52:33;97379.34;;;15.99;87.29
49342;BME280;35210;41.606;-87.602;2023-04-01T02:55:03;97370.72;;;15.97;87.54
49342;BME280;35210;41.606;-87.602;2023-04-01T02:57:32;97387.31;;;15.99;88.00
49342;BME280;35210;41.606;-87.602;2023-04-01T03:00:01;97404.13;;;15.99;87.84
49342;BME280;35210;41.606;-87.602;2023-04-01T03:02:30;97421.94;;;15.99;87.48
49342;BME280;35210;41.606;-87.602;2023-04-01T03:04:58;97439.13;;;15.96;88.24
49342;BME280;35210;41.606;-87.602;2023-04-01T03:07:27;97439.72;;;15.92;88.43
49342;BME280;35210;41.606;-87.602;2023-04-01T03:09:56;97427.78;;;15.74;89.00
49342;BME280;35210;41.606;-87.602;2023-04-01T03:12:25;97423.91;;;15.77;89.77
49342;BME280;35210;41.606;-87.602;2023-04-01T03:14:54;97447.63;;;15.72;88.82
49342;BME280;35210;41.606;-87.602;2023-04-01T03:17:22;97479.75;;;15.70;89.23
49342;BME280;35210;41.606;-87.602;2023-04-01T03:19:50;97482.19;;;15.59;89.19
49342;BME280;35210;41.606;-87.602;2023-04-01T03:22:18;97480.47;;;15.51;89.48
49342;BME280;35210;41.606;-87.602;2023-04-01T03:24:47;97494.78;;;15.50;89.26
49342;BME280;35210;41.606;-87.602;2023-04-01T03:27:15;97485.00;;;15.23;91.06
49342;BME280;35210;41.606;-87.602;2023-04-01T03:29:45;97468.50;;;15.34;90.57
49342;BME280;35210;41.606;-87.602;2023-04-01T03:32:13;97472.78;;;15.28;90.18
49342;BME280;35210;41.606;-87.602;2023-04-01T03:34:41;97474.38;;;15.23;90.79
49342;BME280;35210;41.606;-87.602;2023-04-01T03:37:10;97481.25;;;15.10;90.99
49342;BME280;35210;41.606;-87.602;2023-04-01T03:39:38;97481.28;;;15.17;91.34
49342;BME280;35210;41.606;-87.602;2023-04-01T03:42:06;97494.97;;;15.14;91.74
49342;BME280;35210;41.606;-87.602;2023-04-01T03:44:35;97512.75;;;15.13;91.56
49342;BME280;35210;41.606;-87.602;2023-04-01T03:47:05;97514.94;;;15.03;91.52
49342;BME280;35210;41.606;-87.602;2023-04-01T03:49:35;97518.97;;;14.99;91.83
49342;BME280;35210;41.606;-87.602;2023-04-01T03:52:03;97519.63;;;15.01;91.59
49342;BME280;35210;41.606;-87.602;2023-04-01T03:54:31;97547.59;;;14.97;91.84
49342;BME280;35210;41.606;-87.602;2023-04-01T03:56:59;97562.63;;;14.84;92.06
49342;BME280;35210;41.606;-87.602;2023-04-01T03:59:28;97560.19;;;14.89;91.52
49342;BME280;35210;41.606;-87.602;2023-04-01T04:01:56;97563.84;;;14.88;91.71
49342;BME280;35210;41.606;-87.602;2023-04-01T04:04:27;97573.19;;;14.77;91.42
49342;BME280;35210;41.606;-87.602;2023-04-01T04:06:55;97575.72;;;14.85;91.40
49342;BME280;35210;41.606;-87.602;2023-04-01T04:09:23;97600.66;;;14.84;91.74
49342;BME280;35210;41.606;-87.602;2023-04-01T04:11:51;97599.81;;;14.84;91.55
49342;BME280;35210;41.606;-87.602;2023-04-01T04:14:19;97626.31;;;14.77;90.82
49342;BME280;35210;41.606;-87.602;2023-04-01T04:16:47;97621.50;;;14.87;89.78
49342;BME280;35210;41.606;-87.602;2023-04-01T04:19:16;97617.00;;;14.88;88.39
49342;BME280;35210;41.606;-87.602;2023-04-01T04:21:45;97627.91;;;14.71;86.53
49342;BME280;35210;41.606;-87.602;2023-04-01T04:24:14;97639.28;;;14.87;86.61
49342;BME280;35210;41.606;-87.602;2023-04-01T04:26:42;97630.72;;;14.91;85.15
49342;BME280;35210;41.606;-87.602;2023-04-01T04:29:10;97651.16;;;14.91;85.09
49342;BME280;35210;41.606;-87.602;2023-04-01T04:31:38;97658.09;;;14.85;84.29
49342;BME280;35210;41.606;-87.602;2023-04-01T04:34:06;97634.66;;;14.95;83.76
49342;BME280;35210;41.606;-87.602;2023-04-01T04:36:35;97625.28;;;14.99;82.20
49342;BME280;35210;41.606;-87.602;2023-04-01T04:39:04;97644.09;;;14.98;80.16
49342;BME280;35210;41.606;-87.602;2023-04-01T04:41:33;97637.06;;;14.90;78.61
49342;BME280;35210;41.606;-87.602;2023-04-01T04:44:01;97654.47;;;14.93;78.58
49342;BME280;35210;41.606;-87.602;2023-04-01T04:46:29;97650.50;;;14.82;73.67
49342;BME280;35210;41.606;-87.602;2023-04-01T04:48:57;97655.44;;;14.85;72.35
49342;BME280;35210;41.606;-87.602;2023-04-01T04:51:25;97658.22;;;14.77;70.99
49342;BME280;35210;41.606;-87.602;2023-04-01T04:53:53;97656.41;;;14.63;69.41
49342;BME280;35210;41.606;-87.602;2023-04-01T04:56:23;97673.47;;;14.54;70.18
49342;BME280;35210;41.606;-87.602;2023-04-01T04:58:52;97664.47;;;14.55;69.11
49342;BME280;35210;41.606;-87.602;2023-04-01T05:01:20;97658.28;;;14.48;68.05
49342;BME280;35210;41.606;-87.602;2023-04-01T05:03:50;97651.56;;;14.37;65.88
49342;BME280;35210;41.606;-87.602;2023-04-01T05:06:19;97653.41;;;14.22;66.16
49342;BME280;35210;41.606;-87.602;2023-04-01T05:08:48;97657.78;;;14.29;65.68
49342;BME280;35210;41.606;-87.602;2023-04-01T05:11:17;97650.47;;;14.17;67.01
49342;BME280;35210;41.606;-87.602;2023-04-01T05:13:49;97665.94;;;14.13;66.17
49342;BME280;35210;41.606;-87.602;2023-04-01T05:16:19;97655.19;;;14.00;65.23
49342;BME280;35210;41.606;-87.602;2023-04-01T05:18:48;97660.94;;;13.89;64.66
49342;BME280;35210;41.606;-87.602;2023-04-01T05:21:17;97661.03;;;13.80;63.70
49342;BME280;35210;41.606;-87.602;2023-04-01T05:23:45;97677.66;;;13.74;62.60
49342;BME280;35210;41.606;-87.602;2023-04-01T05:26:14;97685.97;;;13.71;63.61
49342;BME280;35210;41.606;-87.602;2023-04-01T05:28:43;97688.63;;;13.71;63.38
49342;BME280;35210;41.606;-87.602;2023-04-01T05:31:12;97676.50;;;13.54;61.45
49342;BME280;35210;41.606;-87.602;2023-04-01T05:33:41;97688.91;;;13.39;62.33
49342;BME280;35210;41.606;-87.602;2023-04-01T05:36:10;97693.50;;;13.45;63.05
49342;BME280;35210;41.606;-87.602;2023-04-01T05:38:39;97697.44;;;13.34;64.05
49342;BME280;35210;41.606;-87.602;2023-04-01T05:41:08;97692.56;;;13.38;63.01
49342;BME280;35210;41.606;-87.602;2023-04-01T05:43:37;97699.06;;;13.35;64.40
49342;BME280;35210;41.606;-87.602;2023-04-01T05:46:05;97682.69;;;13.32;63.65
49342;BME280;35210;41.606;-87.602;2023-04-01T05:48:35;97684.94;;;13.20;64.06
49342;BME280;35210;41.606;-87.602;2023-04-01T05:51:04;97678.38;;;13.08;63.72
49342;BME280;35210;41.606;-87.602;2023-04-01T05:53:32;97669.00;;;12.97;64.48
49342;BME280;35210;41.606;-87.602;2023-04-01T05:56:03;97668.19;;;12.97;65.41
49342;BME280;35210;41.606;-87.602;2023-04-01T05:58:31;97672.66;;;12.96;66.27
49342;BME280;35210;41.606;-87.602;2023-04-01T06:01:04;97667.41;;;12.88;66.81
49342;BME280;35210;41.606;-87.602;2023-04-01T06:03:34;97655.22;;;12.79;67.06
49342;BME280;35210;41.606;-87.602;2023-04-01T06:06:03;97653.56;;;12.78;67.80
49342;BME280;35210;41.606;-87.602;2023-04-01T06:08:31;97653.22;;;12.81;68.78
49342;BME280;35210;41.606;-87.602;2023-04-01T06:11:12;97646.22;;;12.88;68.77
49342;BME280;35210;41.606;-87.602;2023-04-01T06:14:00;97649.34;;;12.92;69.61
49342;BME280;35210;41.606;-87.602;2023-04-01T06:16:42;97649.09;;;13.01;68.82
49342;BME280;35210;41.606;-87.602;2023-04-01T06:19:24;97644.28;;;13.05;69.34
49342;BME280;35210;41.606;-87.602;2023-04-01T06:25:28;97641.81;;;13.03;68.78
49342;BME280;35210;41.606;-87.602;2023-04-01T06:28:16;97639.97;;;13.04;68.76
49342;BME280;35210;41.606;-87.602;2023-04-01T06:30:53;97637.03;;;12.99;69.13
49342;BME280;35210;41.606;-87.602;2023-04-01T06:33:51;97625.56;;;12.83;67.86
49342;BME280;35210;41.606;-87.602;2023-04-01T06:36:43;97628.19;;;12.83;67.56
49342;BME280;35210;41.606;-87.602;2023-04-01T06:39:24;97613.78;;;12.86;67.14
49342;BME280;35210;41.606;-87.602;2023-04-01T06:42:14;97608.31;;;12.88;66.56
49342;BME280;35210;41.606;-87.602;2023-04-01T06:44:54;97608.34;;;12.79;67.30
49342;BME280;35210;41.606;-87.602;2023-04-01T06:47:41;97616.53;;;12.70;66.06
49342;BME280;35210;41.606;-87.602;2023-04-01T06:50:21;97619.06;;;12.63;65.90
49342;BME280;35210;41.606;-87.602;2023-04-01T06:53:00;97608.38;;;12.57;65.75
49342;BME280;35210;41.606;-87.602;2023-04-01T06:55:34;97589.19;;;12.55;66.29
49342;BME280;35210;41.606;-87.602;2023-04-01T06:58:13;97587.19;;;12.57;66.21
49342;BME280;35210;41.606;-87.602;2023-04-01T07:00:49;97590.84;;;12.56;65.91
49342;BME280;35210;41.606;-87.602;2023-04-01T07:03:22;97594.47;;;12.55;64.22
49342;BME280;35210;41.606;-87.602;2023-04-01T07:05:52;97593.28;;;12.34;65.11
49342;BME280;35210;41.606;-87.602;2023-04-01T07:08:25;97593.75;;;12.38;64.90
49342;BME280;35210;41.606;-87.602;2023-04-01T07:10:58;97592.31;;;12.27;64.94
49342;BME280;35210;41.606;-87.602;2023-04-01T07:13:34;97593.84;;;12.22;64.92
49342;BME280;35210;41.606;-87.602;2023-04-01T07:16:11;97588.38;;;12.23;64.82
49342;BME280;35210;41.606;-87.602;2023-04-01T07:18:44;97581.13;;;12.17;64.92
49342;BME280;35210;41.606;-87.602;2023-04-01T07:21:25;97578.97;;;12.21;64.89
49342;BME280;35210;41.606;-87.602;2023-04-01T07:24:01;97583.13;;;12.15;63.89
49342;BME280;35210;41.606;-87.602;2023-04-01T07:26:31;97583.53;;;11.96;63.54
49342;BME280;35210;41.606;-87.602;2023-04-01T07:28:59;97581.78;;;11.88;64.51
49342;BME280;35210;41.606;-87.602;2023-04-01T07:31:43;97572.72;;;11.66;64.53
49342;BME280;35210;41.606;-87.602;2023-04-01T07:34:19;97576.38;;;11.65;65.02
49342;BME280;35210;41.606;-87.602;2023-04-01T07:36:57;97561.84;;;11.53;65.10
49342;BME280;35210;41.606;-87.602;2023-04-01T07:39:39;97579.56;;;11.36;65.54
49342;BME280;35210;41.606;-87.602;2023-04-01T07:42:15;97579.56;;;11.36;66.53
49342;BME280;35210;41.606;-87.602;2023-04-01T07:44:54;97567.19;;;11.29;67.03
49342;BME280;35210;41.606;-87.602;2023-04-01T07:47:39;97566.19;;;11.30;66.96
49342;BME280;35210;41.606;-87.602;2023-04-01T07:50:16;97580.09;;;11.15;66.70
49342;BME280;35210;41.606;-87.602;2023-04-01T07:52:58;97574.34;;;10.96;66.92
49342;BME280;35210;41.606;-87.602;2023-04-01T07:55:41;97569.22;;;11.02;67.18
49342;BME280;35210;41.606;-87.602;2023-04-01T07:58:18;97563.63;;;10.89;66.58
49342;BME280;35210;41.606;-87.602;2023-04-01T08:00:56;97558.66;;;10.78;66.80
49342;BME280;35210;41.606;-87.602;2023-04-01T08:03:33;97550.75;;;10.86;67.89
49342;BME280;35210;41.606;-87.602;2023-04-01T08:06:12;97554.72;;;10.90;67.79
49342;BME280;35210;41.606;-87.602;2023-04-01T08:08:49;97553.72;;;10.91;67.61
49342;BME280;35210;41.606;-87.602;2023-04-01T08:11:35;97553.72;;;10.99;66.58
49342;BME280;35210;41.606;-87.602;2023-04-01T08:14:17;97557.50;;;10.89;66.47
49342;BME280;35210;41.606;-87.602;2023-04-01T08:16:54;97560.81;;;10.82;67.78
49342;BME280;35210;41.606;-87.602;2023-04-01T08:19:37;97566.25;;;10.81;67.86
49342;BME280;35210;41.606;-87.602;2023-04-01T08:22:16;97552.06;;;10.82;67.29
49342;BME280;35210;41.606;-87.602;2023-04-01T08:24:48;97547.13;;;10.71;67.91
49342;BME280;35210;41.606;-87.602;2023-04-01T08:27:22;97538.88;;;10.74;68.24
49342;BME280;35210;41.606;-87.602;2023-04-01T08:29:58;97539.03;;;10.64;68.52
49342;BME280;35210;41.606;-87.602;2023-04-01T08:32:34;97536.53;;;10.46;70.59
49342;BME280;35210;41.606;-87.602;2023-04-01T08:35:09;97536.38;;;10.48;70.70
49342;BME280;35210;41.606;-87.602;2023-04-01T08:37:44;97534.56;;;10.40;71.55
49342;BME280;35210;41.606;-87.602;2023-04-01T08:40:32;97527.81;;;10.38;71.72
49342;BME280;35210;41.606;-87.602;2023-04-01T08:43:11;97526.63;;;10.40;72.68
49342;BME280;35210;41.606;-87.602;2023-04-01T08:46:02;97525.66;;;10.25;72.58
49342;BME280;35210;41.606;-87.602;2023-04-01T08:48:52;97528.78;;;10.29;72.59
49342;BME280;35210;41.606;-87.602;2023-04-01T08:51:54;97507.03;;;10.27;73.08
49342;BME280;35210;41.606;-87.602;2023-04-01T08:57:55;97484.72;;;10.05;73.09
49342;BME280;35210;41.606;-87.602;2023-04-01T09:00:31;97477.63;;;10.13;72.96
49342;BME280;35210;41.606;-87.602;2023-04-01T09:03:18;97472.50;;;10.04;72.85
49342;BME280;35210;41.606;-87.602;2023-04-01T09:09:21;97449.44;;;9.98;72.37
49342;BME280;35210;41.606;-87.602;2023-04-01T09:12:19;97452.34;;;9.78;72.93
49342;BME280;35210;41.606;-87.602;2023-04-01T09:21:23;97481.31;;;9.62;72.55
49342;BME280;35210;41.606;-87.602;2023-04-01T09:24:19;97474.91;;;9.73;72.31
49342;BME280;35210;41.606;-87.602;2023-04-01T09:27:05;97482.66;;;9.74;71.85
49342;BME280;35210;41.606;-87.602;2023-04-01T09:29:58;97477.69;;;9.63;72.70
49342;BME280;35210;41.606;-87.602;2023-04-01T09:32:46;97458.75;;;9.68;71.05
49342;BME280;35210;41.606;-87.602;2023-04-01T09:35:23;97454.97;;;9.70;71.71
49342;BME280;35210;41.606;-87.602;2023-04-01T09:38:04;97475.53;;;9.67;71.89
49342;BME280;35210;41.606;-87.602;2023-04-01T09:40:45;97455.97;;;9.77;72.19
49342;BME280;35210;41.606;-87.602;2023-04-01T09:43:31;97452.72;;;9.92;70.89
49342;BME280;35210;41.606;-87.602;2023-04-01T09:46:15;97427.50;;;9.97;71.07
49342;BME280;35210;41.606;-87.602;2023-04-01T09:52:21;97423.91;;;10.06;72.37
49342;BME280;35210;41.606;-87.602;2023-04-01T09:55:10;97407.44;;;10.20;71.87
49342;BME280;35210;41.606;-87.602;2023-04-01T09:58:16;97386.69;;;10.26;71.58
49342;BME280;35210;41.606;-87.602;2023-04-01T10:01:15;97387.84;;;10.31;70.83
49342;BME280;35210;41.606;-87.602;2023-04-01T10:04:20;97410.59;;;10.24;71.28
49342;BME280;35210;41.606;-87.602;2023-04-01T10:07:38;97398.06;;;10.26;71.91
49342;BME280;35210;41.606;-87.602;2023-04-01T10:13:55;97416.16;;;10.13;71.26
49342;BME280;35210;41.606;-87.602;2023-04-01T10:23:00;97455.72;;;10.13;71.50
49342;BME280;35210;41.606;-87.602;2023-04-01T10:28:56;97456.56;;;10.22;74.18
49342;BME280;35210;41.606;-87.602;2023-04-01T10:31:42;97455.88;;;10.03;75.52
49342;BME280;35210;41.606;-87.602;2023-04-01T10:40:38;97518.81;;;9.48;77.77
49342;BME280;35210;41.606;-87.602;2023-04-01T10:43:54;97504.16;;;9.19;79.72
49342;BME280;35210;41.606;-87.602;2023-04-01T10:46:44;97507.97;;;8.91;80.31
49342;BME280;35210;41.606;-87.602;2023-04-01T10:49:41;97508.78;;;8.66;83.44
49342;BME280;35210;41.606;-87.602;2023-04-01T10:52:36;97527.78;;;8.60;83.81
49342;BME280;35210;41.606;-87.602;2023-04-01T10:55:47;97533.44;;;8.65;83.94
49342;BME280;35210;41.606;-87.602;2023-04-01T10:58:43;97557.34;;;8.36;84.85
49342;BME280;35210;41.606;-87.602;2023-04-01T11:01:35;97564.28;;;8.27;85.37
49342;BME280;35210;41.606;-87.602;2023-04-01T11:04:43;97571.44;;;8.17;84.12
49342;BME280;35210;41.606;-87.602;2023-04-01T11:10:51;97583.72;;;7.71;83.91
49342;BME280;35210;41.606;-87.602;2023-04-01T11:13:48;97583.03;;;7.42;85.32
49342;BME280;35210;41.606;-87.602;2023-04-01T11:16:47;97581.13;;;7.34;84.95
49342;BME280;35210;41.606;-87.602;2023-04-01T11:22:47;97582.00;;;7.15;86.34
49342;BME280;35210;41.606;-87.602;2023-04-01T11:25:31;97576.06;;;7.04;86.86
49342;BME280;35210;41.606;-87.602;2023-04-01T11:31:22;97561.28;;;7.03;87.69
49342;BME280;35210;41.606;-87.602;2023-04-01T11:33:57;97567.66;;;6.90;87.42
49342;BME280;35210;41.606;-87.602;2023-04-01T11:36:39;97559.13;;;6.79;88.30
49342;BME280;35210;41.606;-87.602;2023-04-01T11:39:23;97572.66;;;6.84;89.05
49342;BME280;35210;41.606;-87.602;2023-04-01T11:42:01;97569.34;;;6.82;88.70
49342;BME280;35210;41.606;-87.602;2023-04-01T11:44:38;97554.97;;;6.76;87.97
49342;BME280;35210;41.606;-87.602;2023-04-01T11:47:20;97560.00;;;6.60;89.18
49342;BME280;35210;41.606;-87.602;2023-04-01T11:50:04;97557.91;;;6.64;89.40
49342;BME280;35210;41.606;-87.602;2023-04-01T11:56:03;97563.25;;;6.91;89.64
49342;BME280;35210;41.606;-87.602;2023-04-01T11:58:54;97572.06;;;7.00;87.83
49342;BME280;35210;41.606;-87.602;2023-04-01T12:01:36;97569.31;;;7.01;88.43
49342;BME280;35210;41.606;-87.602;2023-04-01T12:04:50;97570.00;;;6.93;89.00
49342;BME280;35210;41.606;-87.602;2023-04-01T12:07:37;97567.31;;;6.66;88.97
49342;BME280;35210;41.606;-87.602;2023-04-01T12:10:17;97570.31;;;6.71;88.50
49342;BME280;35210;41.606;-87.602;2023-04-01T12:12:54;97569.88;;;6.76;88.88
49342;BME280;35210;41.606;-87.602;2023-04-01T12:15:34;97568.66;;;6.80;89.15
49342;BME280;35210;41.606;-87.602;2023-04-01T12:18:17;97569.59;;;6.88;87.84
49342;BME280;35210;41.606;-87.602;2023-04-01T12:20:52;97576.78;;;6.96;87.34
49342;BME280;35210;41.606;-87.602;2023-04-01T12:23:46;97587.41;;;6.95;86.75
49342;BME280;35210;41.606;-87.602;2023-04-01T12:26:35;97588.38;;;7.03;87.42
49342;BME280;35210;41.606;-87.602;2023-04-01T12:29:21;97580.50;;;7.03;86.64
49342;BME280;35210;41.606;-87.602;2023-04-01T12:32:03;97574.28;;;6.95;86.84
49342;BME280;35210;41.606;-87.602;2023-04-01T12:34:59;97581.75;;;6.99;87.51
49342;BME280;35210;41.606;-87.602;2023-04-01T12:37:35;97588.09;;;6.97;87.20
49342;BME280;35210;41.606;-87.602;2023-04-01T12:40:24;97590.56;;;6.98;87.52
49342;BME280;35210;41.606;-87.602;2023-04-01T12:45:57;97607.44;;;6.96;87.58
49342;BME280;35210;41.606;-87.602;2023-04-01T12:49:18;97610.19;;;6.94;87.12
49342;BME280;35210;41.606;-87.602;2023-04-01T12:52:05;97604.66;;;6.97;86.82
49342;BME280;35210;41.606;-87.602;2023-04-01T13:01:03;97641.41;;;6.78;86.56
49342;BME280;35210;41.606;-87.602;2023-04-01T13:03:52;97647.91;;;6.54;86.72
49342;BME280;35210;41.606;-87.602;2023-04-01T13:06:55;97656.28;;;6.29;86.23
49342;BME280;35210;41.606;-87.602;2023-04-01T13:09:40;97665.31;;;6.06;88.37
49342;BME280;35210;41.606;-87.602;2023-04-01T13:12:34;97694.66;;;5.90;89.64
49342;BME280;35210;41.606;-87.602;2023-04-01T13:18:11;97709.84;;;5.54;90.82
49342;BME280;35210;41.606;-87.602;2023-04-01T13:20:47;97725.63;;;5.43;91.85
49342;BME280;35210;41.606;-87.602;2023-04-01T13:23:36;97724.91;;;5.41;92.33
49342;BME280;35210;41.606;-87.602;2023-04-01T13:26:27;97732.44;;;5.35;92.64
49342;BME280;35210;41.606;-87.602;2023-04-01T13:29:00;97749.81;;;5.36;91.40
49342;BME280;35210;41.606;-87.602;2023-04-01T13:31:43;97754.59;;;5.31;92.10
49342;BME280;35210;41.606;-87.602;2023-04-01T13:34:23;97756.47;;;5.40;92.61
49342;BME280;35210;41.606;-87.602;2023-04-01T13:37:05;97766.28;;;5.47;90.76
49342;BME280;35210;41.606;-87.602;2023-04-01T13:39:50;97764.75;;;5.45;89.64
49342;BME280;35210;41.606;-87.602;2023-04-01T13:42:30;97776.38;;;5.52;87.24
49342;BME280;35210;41.606;-87.602;2023-04-01T13:45:04;97780.25;;;5.37;85.68
49342;BME280;35210;41.606;-87.602;2023-04-01T13:50:53;97786.38;;;5.26;83.82
49342;BME280;35210;41.606;-87.602;2023-04-01T13:53:56;97801.94;;;5.27;84.36
49342;BME280;35210;41.606;-87.602;2023-04-01T13:56:34;97807.25;;;5.16;85.25
49342;BME280;35210;41.606;-87.602;2023-04-01T13:59:31;97818.69;;;5.15;85.73
49342;BME280;35210;41.606;-87.602;2023-04-01T14:02:19;97808.22;;;5.15;85.84
49342;BME280;35210;41.606;-87.602;2023-04-01T14:05:10;97832.16;;;5.32;85.84
49342;BME280;35210;41.606;-87.602;2023-04-01T14:07:51;97831.56;;;5.28;85.75
49342;BME280;35210;41.606;-87.602;2023-04-01T14:10:31;97833.66;;;5.13;86.79
49342;BME280;35210;41.606;-87.602;2023-04-01T14:13:12;97833.91;;;5.10;86.79
49342;BME280;35210;41.606;-87.602;2023-04-01T14:15:57;97845.28;;;5.20;88.32
49342;BME280;35210;41.606;-87.602;2023-04-01T14:18:37;97853.59;;;5.25;88.30
49342;BME280;35210;41.606;-87.602;2023-04-01T14:21:20;97861.44;;;5.25;88.26
49342;BME280;35210;41.606;-87.602;2023-04-01T14:27:17;97880.22;;;5.31;88.98
49342;BME280;35210;41.606;-87.602;2023-04-01T14:30:07;97887.25;;;5.30;90.18
49342;BME280;35210;41.606;-87.602;2023-04-01T14:32:51;97886.16;;;5.33;90.92
49342;BME280;35210;41.606;-87.602;2023-04-01T14:35:35;97899.97;;;5.35;90.94
49342;BME280;35210;41.606;-87.602;2023-04-01T14:38:19;97895.81;;;5.32;91.93
49342;BME280;35210;41.606;-87.602;2023-04-01T14:40:56;97915.91;;;5.32;92.49
49342;BME280;35210;41.606;-87.602;2023-04-01T14:43:46;97921.72;;;5.35;92.66
49342;BME280;35210;41.606;-87.602;2023-04-01T14:46:34;97927.91;;;5.34;93.23
49342;BME280;35210;41.606;-87.602;2023-04-01T14:49:22;97925.16;;;5.47;92.55
49342;BME280;35210;41.606;-87.602;2023-04-01T14:51:53;97942.78;;;5.45;92.94